Time;durP1;ratioP1;P1;durP2;ratioP2;P2;SDS_P1;SDS_P2;PMS_P1;PMS_P2;Temp;Humidity;BMP_temperature;BMP_pressure;BME280_temperature;BME280_humidity;BME280_pressure;Samples;Min_cycle;Max_cycle;Signal;HPM_P1;HPM_P2
2022/11/19 00:01:16;;;;;;;10.55;7.47;;;;;;;4.96;100.00;99549.03;5094419;28;20058;-70
2022/11/19 00:03:44;;;;;;;7.93;6.47;;;;;;;4.81;100.00;99553.09;5087671;28;20440;-70
2022/11/19 00:06:21;;;;;;;10.48;6.93;;;;;;;4.73;100.00;99562.97;5088466;28;20180;-70
2022/11/19 00:08:48;;;;;;;12.48;8.13;;;;;;;4.50;100.00;99535.84;5077026;28;20496;-70
2022/11/19 00:14:03;;;;;;;13.15;8.20;;;;;;;4.57;100.00;99560.06;5095637;28;20409;-70
2022/11/19 00:16:30;;;;;;;13.68;8.85;;;;;;;4.49;100.00;99559.50;5091300;28;20054;-70
2022/11/19 00:18:57;;;;;;;11.57;8.43;;;;;;;4.39;100.00;99556.34;5084113;28;20089;-70
2022/11/19 00:21:23;;;;;;;13.45;8.75;;;;;;;4.39;100.00;99565.97;5085667;28;20052;-71
2022/11/19 00:23:53;;;;;;;13.15;8.75;;;;;;;4.29;100.00;99551.47;5081806;28;20508;-70
2022/11/19 00:26:21;;;;;;;13.40;8.98;;;;;;;4.28;100.00;99561.09;5087389;28;20036;-70
2022/11/19 00:28:48;;;;;;;12.13;8.75;;;;;;;4.25;100.00;99560.38;5082539;28;20131;-70
2022/11/19 00:31:15;;;;;;;13.73;9.90;;;;;;;4.28;100.00;99574.19;5087720;28;20461;-70
2022/11/19 00:33:44;;;;;;;13.32;9.00;;;;;;;4.26;100.00;99573.38;5098463;28;20039;-71
2022/11/19 00:36:13;;;;;;;15.30;8.70;;;;;;;4.11;100.00;99538.06;5086735;28;20047;-70
2022/11/19 00:38:40;;;;;;;14.70;9.70;;;;;;;4.34;100.00;99571.38;5081502;28;20043;-70
2022/11/19 00:41:07;;;;;;;13.98;9.40;;;;;;;4.17;100.00;99544.88;5091296;28;20584;-71
2022/11/19 00:43:46;;;;;;;13.40;9.15;;;;;;;4.31;100.00;99578.47;5094115;28;20035;-70
2022/11/19 00:46:14;;;;;;;13.75;9.68;;;;;;;4.29;100.00;99573.28;5088318;28;20088;-70
2022/11/19 00:48:41;;;;;;;14.85;9.65;;;;;;;4.28;100.00;99584.66;5080186;28;20067;-71
2022/11/19 00:51:08;;;;;;;13.90;9.27;;;;;;;4.25;100.00;99581.31;5087615;28;20043;-69
2022/11/19 00:53:35;;;;;;;16.52;9.25;;;;;;;4.17;100.00;99558.00;5087298;28;20475;-70
2022/11/19 00:56:04;;;;;;;15.73;9.90;;;;;;;4.08;100.00;99553.06;5099595;28;20051;-69
2022/11/19 00:58:30;;;;;;;14.50;9.98;;;;;;;4.05;100.00;99546.16;5091241;28;20039;-69
2022/11/19 01:00:57;;;;;;;15.13;9.63;;;;;;;4.28;100.00;99579.44;5085960;28;20485;-70
2022/11/19 01:03:24;;;;;;;14.25;9.52;;;;;;;4.31;100.00;99576.72;5098629;28;20056;-69
2022/11/19 01:05:51;;;;;;;12.00;8.75;;;;;;;4.34;100.00;99583.63;5087647;28;20036;-69
2022/11/19 01:08:18;;;;;;;16.42;9.15;;;;;;;4.36;100.00;99577.41;5085859;28;20146;-69
2022/11/19 01:10:44;;;;;;;14.82;9.88;;;;;;;4.30;100.00;99577.63;5086616;28;20043;-69
2022/11/19 01:15:56;;;;;;;12.93;9.10;;;;;;;4.28;100.00;99589.06;5089836;28;20123;-69
2022/11/19 01:18:23;;;;;;;15.55;9.63;;;;;;;4.24;100.00;99601.44;5085206;28;20058;-69
2022/11/19 01:20:50;;;;;;;14.73;10.20;;;;;;;4.31;100.00;99588.97;5088334;28;20062;-69
2022/11/19 01:23:17;;;;;;;13.70;9.55;;;;;;;4.37;100.00;99592.25;5089795;28;20611;-71
2022/11/19 01:25:44;;;;;;;14.45;9.75;;;;;;;4.26;100.00;99596.09;5093794;28;20051;-70
2022/11/19 01:28:11;;;;;;;16.10;10.55;;;;;;;4.19;100.00;99603.34;5082373;28;20055;-69
2022/11/19 01:30:42;;;;;;;16.05;10.23;;;;;;;3.92;100.00;99578.06;5096853;28;20404;-69
2022/11/19 01:33:09;;;;;;;15.63;10.23;;;;;;;4.06;100.00;99605.53;5081868;28;20070;-69
2022/11/19 01:35:36;;;;;;;16.35;10.88;;;;;;;4.12;100.00;99612.31;5085058;28;20104;-69
2022/11/19 01:38:03;;;;;;;18.42;11.50;;;;;;;4.16;100.00;99613.91;5085223;28;20101;-70
2022/11/19 01:40:31;;;;;;;16.20;10.80;;;;;;;4.12;100.00;99607.06;5093429;28;20051;-70
2022/11/19 01:42:57;;;;;;;19.25;11.25;;;;;;;4.02;100.00;99606.53;5080421;28;20056;-69
2022/11/19 01:45:29;;;;;;;19.08;12.15;;;;;;;4.04;100.00;99614.34;5085784;28;20052;-70
2022/11/19 01:48:01;;;;;;;19.55;12.48;;;;;;;4.00;100.00;99615.34;5090284;28;20051;-69
2022/11/19 01:50:31;;;;;;;19.48;12.93;;;;;;;3.65;100.00;99580.66;5080582;28;20044;-68
2022/11/19 01:52:59;;;;;;;18.83;13.02;;;;;;;3.67;100.00;99615.50;5092445;28;20035;-68
2022/11/19 01:55:26;;;;;;;20.02;13.02;;;;;;;3.47;100.00;99599.53;5094552;28;20134;-69
2022/11/19 01:57:57;;;;;;;20.98;13.68;;;;;;;3.49;100.00;99624.78;5090970;28;20050;-69
2022/11/19 02:00:23;;;;;;;;;;;;;;;3.47;100.00;99620.47;5083900;28;20044;-68
2022/11/19 02:02:50;;;;;;;22.95;13.65;;;;;;;3.34;100.00;99600.84;5090175;28;20023;-69
2022/11/19 02:05:17;;;;;;;22.95;14.23;;;;;;;3.44;100.00;99620.59;5086157;28;20089;-68
2022/11/19 02:07:54;;;;;;;23.10;14.73;;;;;;;3.30;100.00;99617.56;5082268;28;20035;-69
2022/11/19 02:10:34;;;;;;;24.70;14.98;;;;;;;3.32;100.00;99629.66;5094352;28;20492;-69
2022/11/19 02:13:21;;;;;;;25.80;15.33;;;;;;;3.30;100.00;99622.78;5090391;28;20054;-69
2022/11/19 02:16:25;;;;;;;24.83;14.95;;;;;;;3.22;100.00;99627.38;5062662;28;20142;-70
2022/11/19 02:18:59;;;;;;;22.92;14.30;;;;;;;3.23;100.00;99629.94;5082332;28;20044;-70
2022/11/19 02:21:44;;;;;;;24.27;15.65;;;;;;;3.28;100.00;99624.59;5092199;28;20135;-71
2022/11/19 02:24:29;;;;;;;24.58;15.38;;;;;;;3.14;100.00;99589.22;5096995;28;20047;-68
2022/11/19 02:27:13;;;;;;;23.83;14.77;;;;;;;3.27;100.00;99615.88;5082123;28;20055;-68
2022/11/19 02:30:07;;;;;;;26.90;16.02;;;;;;;3.23;100.00;99622.09;5092821;28;20048;-68
2022/11/19 02:32:43;;;;;;;25.15;15.93;;;;;;;3.18;100.00;99616.13;5093456;28;20561;-69
2022/11/19 02:35:15;;;;;;;27.15;16.35;;;;;;;3.21;100.00;99625.66;5084714;28;20056;-68
2022/11/19 02:38:11;;;;;;;29.58;17.02;;;;;;;3.18;100.00;99622.22;5096113;28;20047;-70
2022/11/19 02:40:47;;;;;;;29.00;16.55;;;;;;;3.04;100.00;99603.47;5080425;28;21995;-67
2022/11/19 02:43:33;;;;;;;28.33;17.20;;;;;;;3.17;100.00;99624.88;5091323;28;20083;-68
2022/11/19 02:46:13;;;;;;;30.38;17.23;;;;;;;3.07;100.00;99629.53;5081534;28;20043;-68
2022/11/19 02:48:49;;;;;;;30.30;18.20;;;;;;;3.08;100.00;99633.00;5093222;28;20511;-68
2022/11/19 02:51:17;;;;;;;30.80;18.23;;;;;;;3.06;100.00;99633.03;5092749;28;20086;-68
2022/11/19 02:53:46;;;;;;;30.58;17.65;;;;;;;3.01;100.00;99624.47;5090365;28;22435;-68
2022/11/19 02:56:34;;;;;;;31.83;18.45;;;;;;;3.02;100.00;99636.63;5090370;28;20174;-69
2022/11/19 03:04:34;;;;;;;31.52;18.85;;;;;;;2.95;100.00;99648.19;5086215;28;20125;-71
2022/11/19 03:07:07;;;;;;;32.97;19.33;;;;;;;2.98;100.00;99650.72;5089022;28;20158;-69
2022/11/19 03:09:39;;;;;;;32.83;19.17;;;;;;;2.81;100.00;99613.72;5087029;28;20056;-72
2022/11/19 03:12:40;;;;;;;33.72;19.13;;;;;;;3.02;100.00;99654.94;5087903;28;20044;-70
2022/11/19 03:18:26;;;;;;;33.05;18.58;;;;;;;2.89;100.00;99629.19;5088856;28;20124;-71
2022/11/19 03:21:02;;;;;;;32.53;19.00;;;;;;;3.01;100.00;99666.31;5087906;28;20170;-71
2022/11/19 03:24:01;;;;;;;33.08;18.65;;;;;;;2.99;100.00;99652.41;5094348;28;20647;-69
2022/11/19 03:26:40;;;;;;;32.40;18.92;;;;;;;3.03;100.00;99667.13;5075570;28;20178;-70
2022/11/19 03:29:11;;;;;;;32.38;18.80;;;;;;;2.85;100.00;99640.63;5093003;28;20066;-71
2022/11/19 03:31:41;;;;;;;29.60;17.23;;;;;;;2.95;100.00;99657.78;5101356;28;20066;-69
2022/11/19 03:34:14;;;;;;;30.23;18.20;;;;;;;2.83;100.00;99648.53;5096394;28;20058;-70
2022/11/19 03:36:43;;;;;;;30.98;18.80;;;;;;;3.00;100.00;99674.19;5096064;28;20583;-68
2022/11/19 03:39:13;;;;;;;30.70;18.27;;;;;;;2.88;100.00;99675.41;5088389;28;20419;-69
2022/11/19 03:41:41;;;;;;;;;;;;;;;2.92;100.00;99677.03;5095272;28;20054;-68
2022/11/19 03:44:23;;;;;;;32.25;17.63;;;;;;;2.89;100.00;99671.88;5098010;28;19919;-70
2022/11/19 03:46:54;;;;;;;34.97;18.90;;;;;;;2.82;100.00;99659.91;5094453;28;20129;-69
2022/11/19 03:49:27;;;;;;;31.98;18.88;;;;;;;2.90;100.00;99683.19;5095759;28;20059;-71
2022/11/19 03:52:10;;;;;;;33.92;19.55;;;;;;;2.92;100.00;99684.03;5093462;28;20039;-69
2022/11/19 03:54:38;;;;;;;36.10;19.52;;;;;;;2.88;100.00;99685.00;5095090;28;20146;-69
2022/11/19 03:57:07;;;;;;;31.77;19.17;;;;;;;2.81;100.00;99679.94;5093764;28;20070;-71
2022/11/19 03:59:33;;;;;;;34.50;19.73;;;;;;;2.78;100.00;99685.25;5094273;28;20054;-69
2022/11/19 04:02:07;;;;;;;33.95;19.33;;;;;;;2.73;100.00;99692.34;5098128;28;20064;-69
2022/11/19 04:04:36;;;;;;;32.17;18.98;;;;;;;2.66;100.00;99695.19;5095713;28;20043;-71
2022/11/19 04:07:08;;;;;;;39.00;20.70;;;;;;;2.60;100.00;99692.72;5094522;28;20039;-69
2022/11/19 04:09:34;;;;;;;36.17;19.83;;;;;;;2.37;100.00;99648.88;5087909;28;20063;-71
2022/11/19 04:12:02;;;;;;;39.40;21.35;;;;;;;2.60;100.00;99690.09;5087075;28;20054;-70
2022/11/19 04:14:28;;;;;;;38.20;21.50;;;;;;;2.49;100.00;99677.31;5102440;28;20499;-71
2022/11/19 04:16:55;;;;;;;40.63;21.15;;;;;;;2.32;100.00;99649.00;5093965;28;20048;-70
2022/11/19 04:19:21;;;;;;;38.85;21.98;;;;;;;2.64;100.00;99697.84;5084700;28;22310;-69
2022/11/19 04:21:48;;;;;;;37.85;22.33;;;;;;;2.65;100.00;99703.91;5091451;28;20051;-68
2022/11/19 04:24:15;;;;;;;37.80;22.33;;;;;;;2.57;100.00;99705.84;5093782;28;20040;-69
2022/11/19 04:26:42;;;;;;;37.97;22.00;;;;;;;2.50;100.00;99704.31;5092154;28;20326;-70
2022/11/19 04:29:08;;;;;;;38.47;22.42;;;;;;;2.52;100.00;99702.53;5098450;28;20146;-70
2022/11/19 04:31:35;;;;;;;42.85;22.77;;;;;;;2.56;100.00;99704.13;5095723;28;20054;-69
2022/11/19 04:34:02;;;;;;;40.08;22.33;;;;;;;2.58;100.00;99718.03;5094373;28;20493;-70
2022/11/19 04:36:28;;;;;;;41.80;22.63;;;;;;;2.55;100.00;99708.50;5093184;28;20143;-70
2022/11/19 04:38:55;;;;;;;41.08;22.63;;;;;;;2.64;100.00;99710.03;5084190;28;20060;-71
2022/11/19 04:41:22;;;;;;;40.38;22.23;;;;;;;2.68;100.00;99702.06;5088321;28;20044;-69
2022/11/19 04:43:48;;;;;;;37.28;21.05;;;;;;;2.63;100.00;99700.50;5098081;28;20040;-71
2022/11/19 04:46:15;;;;;;;36.72;20.73;;;;;;;2.50;100.00;99689.50;5097167;28;20777;-70
2022/11/19 04:48:41;;;;;;;34.72;19.95;;;;;;;2.57;100.00;99709.34;5092737;28;20054;-71
2022/11/19 04:51:08;;;;;;;35.33;20.27;;;;;;;2.46;100.00;99696.53;5080879;28;20048;-70
2022/11/19 04:53:35;;;;;;;33.85;19.40;;;;;;;2.51;100.00;99708.66;5098085;28;20052;-70
2022/11/19 04:56:01;;;;;;;30.88;17.38;;;;;;;2.50;100.00;99707.78;5094535;28;20711;-70
2022/11/19 04:58:28;;;;;;;20.20;12.43;;;;;;;2.46;100.00;99696.53;5092294;28;20051;-71
2022/11/19 05:00:54;;;;;;;19.98;12.77;;;;;;;2.30;100.00;99669.09;5085161;28;20492;-70
2022/11/19 05:03:21;;;;;;;17.42;11.20;;;;;;;2.55;100.00;99700.66;5095014;28;20050;-70
2022/11/19 05:05:48;;;;;;;18.27;11.10;;;;;;;2.52;100.00;99708.56;5099945;28;20126;-70
2022/11/19 05:08:15;;;;;;;19.48;11.45;;;;;;;2.22;100.00;99659.72;5085220;28;20559;-71
2022/11/19 05:10:43;;;;;;;17.23;10.70;;;;;;;2.58;100.00;99729.34;5090215;28;20056;-72
2022/11/19 05:13:10;;;;;;;14.85;9.05;;;;;;;2.59;100.00;99733.69;5090140;28;20142;-71
2022/11/19 05:15:36;;;;;;;15.32;9.55;;;;;;;2.53;100.00;99718.13;5094342;28;20483;-70
2022/11/19 05:18:03;;;;;;;15.75;9.40;;;;;;;2.58;100.00;99736.31;5098084;28;20044;-70
2022/11/19 05:20:30;;;;;;;15.07;9.40;;;;;;;2.51;100.00;99724.31;5082045;28;20047;-71
2022/11/19 05:22:56;;;;;;;15.85;9.57;;;;;;;2.45;100.00;99718.34;5096350;28;20044;-70
2022/11/19 05:25:23;;;;;;;14.13;9.43;;;;;;;2.34;100.00;99709.94;5083828;28;20048;-69
2022/11/19 05:27:50;;;;;;;14.90;9.35;;;;;;;2.49;100.00;99736.56;5088977;28;20439;-72
2022/11/19 05:30:17;;;;;;;17.38;9.63;;;;;;;2.44;100.00;99728.84;5086905;28;20123;-70
2022/11/19 05:32:43;;;;;;;14.32;8.98;;;;;;;2.20;100.00;99713.75;5081863;28;20140;-70
2022/11/19 05:35:10;;;;;;;14.63;9.38;;;;;;;2.27;100.00;99744.91;5090754;28;20054;-71
2022/11/19 05:37:37;;;;;;;16.15;9.30;;;;;;;2.04;100.00;99703.69;5099563;28;20040;-69
2022/11/19 05:40:04;;;;;;;14.60;9.90;;;;;;;2.23;100.00;99731.94;5085587;28;20040;-70
2022/11/19 05:42:30;;;;;;;13.70;8.90;;;;;;;2.21;100.00;99744.19;5089987;28;20048;-71
2022/11/19 05:44:57;;;;;;;15.70;9.30;;;;;;;2.17;100.00;99743.41;5084860;28;20056;-70
2022/11/19 05:47:23;;;;;;;14.80;9.73;;;;;;;2.15;100.00;99745.22;5080177;28;20054;-70
2022/11/19 05:49:50;;;;;;;15.65;9.60;;;;;;;2.19;100.00;99759.06;5093306;28;20059;-70
2022/11/19 05:52:16;;;;;;;15.63;9.70;;;;;;;2.09;100.00;99755.78;5094859;28;20046;-70
2022/11/19 05:54:43;;;;;;;14.35;9.38;;;;;;;1.96;100.00;99725.63;5088683;28;20048;-70
2022/11/19 05:57:09;;;;;;;15.98;9.80;;;;;;;1.84;100.00;99715.47;5089270;28;20339;-70
2022/11/19 05:59:37;;;;;;;14.93;9.60;;;;;;;2.01;100.00;99760.34;5093386;28;20071;-71
2022/11/19 06:02:09;;;;;;;17.13;10.57;;;;;;;1.94;100.00;99753.53;5081876;28;20151;-70
2022/11/19 06:04:36;;;;;;;15.90;10.05;;;;;;;1.97;100.00;99756.06;5085830;28;20818;-71
2022/11/19 06:07:03;;;;;;;16.75;10.10;;;;;;;2.03;100.00;99763.78;5096318;28;20052;-70
2022/11/19 06:09:31;;;;;;;18.77;11.07;;;;;;;1.83;100.00;99726.81;5097970;28;20135;-70
2022/11/19 06:11:57;;;;;;;18.17;11.13;;;;;;;1.75;100.00;99727.81;5094799;28;20055;-71
2022/11/19 06:14:26;;;;;;;19.42;11.55;;;;;;;1.94;100.00;99762.22;5094319;28;20054;-70
2022/11/19 06:16:58;;;;;;;19.73;11.15;;;;;;;1.76;100.00;99750.41;5093142;28;22124;-70
2022/11/19 06:19:25;;;;;;;21.15;12.10;;;;;;;1.90;100.00;99775.34;5093189;28;20398;-70
2022/11/19 06:21:52;;;;;;;19.27;11.57;;;;;;;1.70;100.00;99737.50;5091562;28;20051;-69
2022/11/19 06:24:19;;;;;;;22.42;12.80;;;;;;;1.85;100.00;99778.09;5095889;28;20855;-70
2022/11/19 06:26:46;;;;;;;19.90;11.90;;;;;;;1.64;100.00;99736.78;5089750;28;20658;-71
2022/11/19 06:29:14;;;;;;;22.73;12.73;;;;;;;1.93;100.00;99783.13;5101155;28;20046;-71
2022/11/19 06:31:41;;;;;;;21.15;12.95;;;;;;;1.84;100.00;99773.75;5092024;28;20044;-71
2022/11/19 06:34:08;;;;;;;19.48;12.18;;;;;;;1.68;100.00;99757.56;5097744;28;20078;-72
2022/11/19 06:36:34;;;;;;;19.85;11.77;;;;;;;1.88;100.00;99801.53;5100032;28;20040;-72
2022/11/19 06:39:09;;;;;;;21.20;11.75;;;;;;;1.88;100.00;99800.66;5097330;28;20081;-72
2022/11/19 06:41:36;;;;;;;21.05;12.02;;;;;;;1.87;100.00;99791.13;5090435;28;20047;-72
2022/11/19 06:44:02;;;;;;;18.63;11.18;;;;;;;1.87;100.00;99791.97;5091174;28;20044;-71
2022/11/19 06:46:29;;;;;;;20.17;11.70;;;;;;;1.90;100.00;99796.25;5100992;28;20490;-72
2022/11/19 06:48:56;;;;;;;18.75;11.45;;;;;;;1.79;100.00;99793.88;5088882;28;20143;-71
2022/11/19 06:51:23;;;;;;;20.98;12.52;;;;;;;1.77;100.00;99796.50;5090363;28;20048;-69
2022/11/19 06:53:50;;;;;;;20.33;11.50;;;;;;;1.65;100.00;99795.91;5093011;28;21303;-70
2022/11/19 06:56:16;;;;;;;21.40;12.23;;;;;;;1.59;100.00;99793.41;5094417;28;20088;-71
2022/11/19 06:58:43;;;;;;;23.20;13.50;;;;;;;1.56;100.00;99794.34;5086225;28;20048;-70
2022/11/19 07:01:09;;;;;;;23.60;13.40;;;;;;;1.58;100.00;99799.53;5098006;28;20063;-70
2022/11/19 07:03:36;;;;;;;22.58;13.65;;;;;;;1.55;100.00;99810.91;5099152;28;20802;-70
2022/11/19 07:06:03;;;;;;;23.67;13.18;;;;;;;1.30;100.00;99773.13;5096014;28;20050;-70
2022/11/19 07:08:33;;;;;;;24.08;13.85;;;;;;;1.53;100.00;99804.00;5096686;28;20051;-70
2022/11/19 07:11:24;;;;;;;24.67;13.68;;;;;;;1.34;100.00;99770.44;5090010;28;20138;-70
2022/11/19 07:13:57;;;;;;;24.52;14.00;;;;;;;1.57;100.00;99801.31;5092227;28;20481;-70
2022/11/19 07:16:29;;;;;;;24.58;14.15;;;;;;;1.65;100.00;99820.25;5095800;28;20074;-72
2022/11/19 07:18:58;;;;;;;25.80;14.27;;;;;;;1.53;100.00;99794.41;5097343;28;20187;-69
2022/11/19 07:21:25;;;;;;;26.63;14.65;;;;;;;1.72;100.00;99826.22;5084638;28;20598;-70
2022/11/19 07:23:53;;;;;;;26.33;14.32;;;;;;;1.73;100.00;99820.94;5093602;28;20038;-69
2022/11/19 07:26:19;;;;;;;24.60;13.90;;;;;;;1.71;100.00;99830.59;5087588;28;20044;-69
2022/11/19 07:28:46;;;;;;;27.27;14.98;;;;;;;1.68;100.00;99824.56;5090013;28;20138;-70
2022/11/19 07:31:13;;;;;;;26.88;14.88;;;;;;;1.74;100.00;99827.88;5091120;28;20043;-70
2022/11/19 07:33:39;;;;;;;24.10;14.18;;;;;;;1.74;100.00;99817.44;5088157;27;20047;-69
2022/11/19 07:36:09;;;;;;;25.70;15.05;;;;;;;1.47;100.00;99780.63;5095321;27;20127;-70
2022/11/19 07:38:43;;;;;;;25.67;14.57;;;;;;;1.70;100.00;99826.25;5084435;28;20052;-70
2022/11/19 07:43:55;;;;;;;23.95;12.98;;;;;;;1.64;100.00;99844.63;5095718;28;20040;-70
2022/11/19 07:46:22;;;;;;;22.63;12.27;;;;;;;1.58;100.00;99849.97;5096561;28;21247;-70
2022/11/19 07:48:53;;;;;;;21.30;13.02;;;;;;;1.54;100.00;99847.47;5096297;28;20051;-70
2022/11/19 07:51:20;;;;;;;22.58;12.05;;;;;;;1.54;100.00;99848.31;5089750;28;20055;-71
2022/11/19 07:53:48;;;;;;;23.52;13.00;;;;;;;1.55;100.00;99842.22;5085244;28;20134;-71
2022/11/19 07:56:15;;;;;;;21.00;12.38;;;;;;;1.53;100.00;99851.81;5097626;28;20039;-70
2022/11/19 07:58:41;;;;;;;19.98;11.52;;;;;;;1.37;100.00;99812.13;5087727;28;20047;-70
2022/11/19 08:01:10;;;;;;;21.52;12.32;;;;;;;1.58;100.00;99841.28;5081633;28;20044;-71
2022/11/19 08:03:37;;;;;;;22.13;12.40;;;;;;;1.58;100.00;99841.28;5086022;28;20054;-69
2022/11/19 08:06:05;;;;;;;20.40;12.05;;;;;;;1.61;100.00;99852.50;5090091;28;20176;-70
2022/11/19 08:08:32;;;;;;;21.50;12.32;;;;;;;1.63;100.00;99855.09;5089388;28;20043;-69
2022/11/19 08:11:06;;;;;;;22.15;11.93;;;;;;;1.42;100.00;99819.84;5085430;28;20048;-69
2022/11/19 08:13:33;;;;;;;21.60;12.27;;;;;;;1.65;100.00;99859.41;5092597;28;20052;-69
2022/11/19 08:16:01;;;;;;;22.55;12.55;;;;;;;1.68;100.00;99867.19;5089592;28;20143;-70
2022/11/19 08:18:28;;;;;;;21.92;12.32;;;;;;;1.67;100.00;99852.41;5091915;28;20061;-71
2022/11/19 08:21:03;;;;;;;22.67;11.98;;;;;;;1.70;100.00;99851.50;5080146;28;20048;-71
2022/11/19 08:23:31;;;;;;;20.80;12.23;;;;;;;1.73;100.00;99860.09;5104954;28;20055;-70
2022/11/19 08:25:58;;;;;;;23.20;11.63;;;;;;;1.73;100.00;99861.88;5101915;28;20122;-69
2022/11/19 08:28:26;;;;;;;19.48;10.95;;;;;;;1.73;100.00;99874.94;5104446;28;20613;-69
2022/11/19 08:30:53;;;;;;;17.42;10.48;;;;;;;1.49;100.00;99829.28;5098598;28;20047;-69
2022/11/19 08:33:19;;;;;;;18.73;10.93;;;;;;;1.50;100.00;99833.59;5102300;28;20060;-69
2022/11/19 08:35:46;;;;;;;17.80;10.00;;;;;;;1.65;100.00;99858.53;5104707;28;20047;-70
2022/11/19 08:38:12;;;;;;;18.90;11.15;;;;;;;1.74;100.00;99882.72;5104447;28;20058;-70
2022/11/19 08:40:39;;;;;;;21.10;11.10;;;;;;;1.83;100.00;99878.22;5096877;28;20068;-70
2022/11/19 08:43:05;;;;;;;19.88;11.00;;;;;;;1.79;100.00;99881.75;5094114;28;20504;-70
2022/11/19 08:45:36;;;;;;;17.95;11.05;;;;;;;1.81;100.00;99882.59;5096412;28;20066;-69
2022/11/19 08:48:09;;;;;;;19.05;10.90;;;;;;;1.80;100.00;99888.72;5098657;28;20052;-69
2022/11/19 08:50:36;;;;;;;18.88;10.80;;;;;;;1.82;100.00;99893.00;5099102;28;20078;-70
2022/11/19 08:53:05;;;;;;;17.75;10.25;;;;;;;1.84;100.00;99895.59;5092428;28;20050;-71
2022/11/19 08:55:31;;;;;;;20.60;11.38;;;;;;;1.85;100.00;99895.56;5088933;28;20051;-70
2022/11/19 08:58:03;;;;;;;16.50;10.23;;;;;;;1.83;100.00;99904.31;5088814;28;20116;-70
2022/11/19 09:00:31;;;;;;;17.50;10.52;;;;;;;1.60;100.00;99857.75;5088698;28;20044;-69
2022/11/19 09:02:58;;;;;;;20.45;11.40;;;;;;;1.82;100.00;99905.22;5084634;28;20043;-69
2022/11/19 09:05:25;;;;;;;19.48;11.23;;;;;;;1.85;100.00;99903.41;5097512;27;20059;-70
2022/11/19 09:07:53;;;;;;;19.90;11.48;;;;;;;1.74;100.00;99893.16;5092811;28;20050;-70
2022/11/19 09:10:20;;;;;;;19.70;10.98;;;;;;;1.83;100.00;99906.94;5094341;28;20043;-70
2022/11/19 09:12:48;;;;;;;22.05;12.02;;;;;;;1.70;100.00;99886.28;5091740;28;20588;-70
2022/11/19 09:15:14;;;;;;;21.55;11.90;;;;;;;1.80;100.00;99901.75;5092881;28;20138;-70
2022/11/19 09:17:41;;;;;;;21.55;12.55;;;;;;;1.75;100.00;99891.41;5089409;28;20094;-71
2022/11/19 09:20:12;;;;;;;23.73;12.73;;;;;;;1.82;100.00;99913.03;5091214;28;20079;-70
2022/11/19 09:22:39;;;;;;;21.02;12.50;;;;;;;1.78;100.00;99909.63;5093262;27;20382;-70
2022/11/19 09:25:07;;;;;;;24.55;13.98;;;;;;;1.73;100.00;99914.91;5093418;28;20113;-70
2022/11/19 09:27:35;;;;;;;28.00;14.52;;;;;;;1.75;100.00;99917.50;5093251;28;20039;-72
2022/11/19 09:30:04;;;;;;;25.10;13.98;;;;;;;1.85;100.00;99921.69;5094964;27;20058;-72
2022/11/19 09:32:31;;;;;;;22.50;13.38;;;;;;;1.85;100.00;99923.44;5098977;28;20052;-71
2022/11/19 09:34:58;;;;;;;27.85;14.98;;;;;;;1.92;100.00;99931.09;5097793;28;20044;-70
2022/11/19 09:37:24;;;;;;;26.42;14.50;;;;;;;1.94;100.00;99923.22;5105305;28;20609;-71
2022/11/19 09:39:51;;;;;;;27.13;14.18;;;;;;;1.92;100.00;99927.63;5107730;28;20086;-69
2022/11/19 09:42:49;;;;;;;27.05;15.32;;;;;;;1.94;100.00;99937.16;5105192;28;20043;-70
2022/11/19 09:46:02;;;;;;;25.67;14.57;;;;;;;1.93;100.00;99927.59;5028479;28;20143;-70
2022/11/19 09:48:35;;;;;;;27.63;14.27;;;;;;;1.94;100.00;99934.53;5012200;28;20440;-71
2022/11/19 09:51:18;;;;;;;27.35;14.52;;;;;;;1.87;100.00;99938.19;5007023;28;20050;-71
2022/11/19 09:53:56;;;;;;;28.95;15.68;;;;;;;1.84;100.00;99926.91;5002706;28;20050;-71
2022/11/19 09:56:53;;;;;;;30.55;15.50;;;;;;;1.92;100.00;99938.06;5010623;28;20108;-71
2022/11/19 09:59:23;;;;;;;26.33;14.45;;;;;;;1.92;100.00;99940.69;5011651;28;20054;-71
2022/11/19 10:01:50;;;;;;;34.30;16.20;;;;;;;1.97;100.00;99941.47;5001941;28;20472;-71
2022/11/19 10:04:30;;;;;;;27.38;14.80;;;;;;;2.05;100.00;99937.78;5011474;28;20454;-71
2022/11/19 10:07:34;;;;;;;24.42;13.70;;;;;;;2.05;100.00;99937.78;5015331;28;20137;-70
2022/11/19 10:10:26;;;;;;;24.10;13.65;;;;;;;1.88;100.00;99939.03;5014067;28;20046;-70
2022/11/19 10:13:14;;;;;;;23.40;13.10;;;;;;;1.83;100.00;99933.91;4997861;28;20038;-71
2022/11/19 10:15:47;;;;;;;25.38;14.23;;;;;;;1.80;100.00;99927.88;5014664;28;20038;-70
2022/11/19 10:18:40;;;;;;;25.83;14.32;;;;;;;1.84;100.00;99935.63;5008821;28;20042;-71
2022/11/19 10:21:21;;;;;;;24.55;13.82;;;;;;;1.74;100.00;99923.59;5010911;28;20128;-70
2022/11/19 10:24:09;;;;;;;25.73;14.32;;;;;;;1.79;100.00;99944.41;5000486;28;20057;-70
2022/11/19 10:26:39;;;;;;;26.70;14.18;;;;;;;1.75;100.00;99938.38;5014257;28;20137;-70
2022/11/19 10:29:20;;;;;;;29.05;14.13;;;;;;;1.71;100.00;99942.81;5013788;28;20131;-71
2022/11/19 10:31:49;;;;;;;27.73;14.80;;;;;;;1.78;100.00;99948.78;5004324;28;20108;-71
2022/11/19 10:34:32;;;;;;;27.25;14.77;;;;;;;1.88;100.00;99944.25;5003804;28;20060;-70
2022/11/19 10:37:10;;;;;;;26.05;13.73;;;;;;;1.88;100.00;99941.66;5011883;28;20564;-72
2022/11/19 10:39:52;;;;;;;30.08;15.02;;;;;;;1.83;100.00;99946.09;5006915;28;20046;-71
2022/11/19 10:42:27;;;;;;;25.10;14.15;;;;;;;1.76;100.00;99940.97;5001383;28;20140;-71
2022/11/19 10:45:03;;;;;;;26.25;14.40;;;;;;;1.85;100.00;99946.94;5008703;28;20068;-72
2022/11/19 10:47:40;;;;;;;27.02;13.93;;;;;;;1.89;100.00;99944.19;5016478;28;20056;-72
2022/11/19 10:50:14;;;;;;;26.65;14.88;;;;;;;1.94;100.00;99949.34;5010982;28;20125;-71
2022/11/19 10:52:46;;;;;;;26.98;14.95;;;;;;;1.98;100.00;99941.44;4992901;28;20054;-71
2022/11/19 10:55:31;;;;;;;31.42;16.05;;;;;;;1.98;100.00;99951.00;5009062;28;20078;-72
2022/11/19 10:58:07;;;;;;;28.27;15.40;;;;;;;1.82;100.00;99906.06;4999107;28;20141;-70
2022/11/19 11:00:36;;;;;;;28.88;15.75;;;;;;;2.01;100.00;99940.53;4998706;28;20069;-72
2022/11/19 11:03:05;;;;;;;29.17;15.25;;;;;;;1.99;100.00;99942.28;4985090;28;20101;-72
2022/11/19 11:05:54;;;;;;;30.15;15.45;;;;;;;1.88;100.00;99905.09;4991783;28;20050;-71
2022/11/19 11:08:21;;;;;;;34.45;16.25;;;;;;;2.09;100.00;99942.06;4994391;28;20050;-71
2022/11/19 11:10:49;;;;;;;34.10;17.33;;;;;;;2.07;100.00;99933.41;4993452;28;20395;-72
2022/11/19 11:16:37;;;;;;;30.35;16.30;;;;;;;1.95;100.00;99946.72;5001855;28;20125;-72
2022/11/19 11:19:13;;;;;;;32.70;17.63;;;;;;;1.92;100.00;99949.38;4994552;28;20065;-71
2022/11/19 11:21:42;;;;;;;34.65;18.08;;;;;;;1.89;100.00;99944.19;4986900;28;20062;-73
2022/11/19 11:24:13;;;;;;;33.22;18.08;;;;;;;1.91;100.00;99928.50;4986481;28;20053;-71
2022/11/19 11:26:40;;;;;;;35.58;18.65;;;;;;;1.94;100.00;99938.91;5003106;28;20494;-71
2022/11/19 11:29:12;;;;;;;33.22;18.17;;;;;;;2.00;100.00;99946.63;5001754;28;20087;-71
2022/11/19 11:31:42;;;;;;;37.63;19.33;;;;;;;1.79;100.00;99915.69;4996751;28;20149;-71
2022/11/19 11:34:25;;;;;;;38.92;19.10;;;;;;;2.09;100.00;99949.03;4990373;28;20042;-71
2022/11/19 11:36:52;;;;;;;36.13;19.27;;;;;;;2.05;100.00;99926.50;4999974;28;20082;-71
2022/11/19 11:39:39;;;;;;;34.67;18.63;;;;;;;2.16;100.00;99942.81;5006303;28;20133;-71
2022/11/19 11:42:11;;;;;;;33.97;19.10;;;;;;;2.17;100.00;99933.25;4980825;28;20101;-71
2022/11/19 11:44:56;;;;;;;35.10;18.70;;;;;;;2.23;100.00;99947.00;4992886;28;20553;-71
2022/11/19 11:47:29;;;;;;;34.90;18.55;;;;;;;2.25;100.00;99929.56;4995512;28;20042;-72
2022/11/19 11:50:07;;;;;;;33.78;18.83;;;;;;;2.28;100.00;99945.19;4996989;28;20054;-71
2022/11/19 11:52:34;;;;;;;34.95;19.02;;;;;;;2.33;100.00;99934.66;4980693;28;20157;-71
2022/11/19 11:55:07;;;;;;;32.05;17.92;;;;;;;2.26;100.00;99933.03;4996186;28;20066;-71
2022/11/19 11:57:36;;;;;;;36.60;19.05;;;;;;;2.22;100.00;99928.75;4999727;28;20052;-70